sensor_id;sensor_type;location;lat;lon;timestamp;P1;durP1;ratioP1;P2;durP2;ratioP2
21122;SDS011;10719;48.130;11.630;2023-05-20T00:01:57;11.38;;;3.20;;
21122;SDS011;10719;48.130;11.630;2023-05-20T00:04:23;6.13;;;2.70;;
21122;SDS011;10719;48.130;11.630;2023-05-20T00:06:49;7.13;;;2.92;;
21122;SDS011;10719;48.130;11.630;2023-05-20T00:09:14;11.27;;;3.92;;
21122;SDS011;10719;48.130;11.630;2023-05-20T00:11:41;7.85;;;3.15;;
21122;SDS011;10719;48.130;11.630;2023-05-20T00:14:07;8.70;;;3.50;;
21122;SDS011;10719;48.130;11.630;2023-05-20T00:16:32;8.27;;;2.83;;
21122;SDS011;10719;48.130;11.630;2023-05-20T00:18:58;7.93;;;3.63;;
21122;SDS011;10719;48.130;11.630;2023-05-20T00:21:24;6.93;;;2.80;;
21122;SDS011;10719;48.130;11.630;2023-05-20T00:23:50;7.15;;;2.80;;
21122;SDS011;10719;48.130;11.630;2023-05-20T00:26:15;8.02;;;2.88;;
21122;SDS011;10719;48.130;11.630;2023-05-20T00:28:41;8.75;;;2.95;;
21122;SDS011;10719;48.130;11.630;2023-05-20T00:31:06;8.27;;;2.88;;
21122;SDS011;10719;48.130;11.630;2023-05-20T00:33:32;7.65;;;3.08;;
21122;SDS011;10719;48.130;11.630;2023-05-20T00:36:00;8.45;;;2.72;;
21122;SDS011;10719;48.130;11.630;2023-05-20T00:38:26;6.07;;;2.88;;
21122;SDS011;10719;48.130;11.630;2023-05-20T00:40:51;10.40;;;3.63;;
21122;SDS011;10719;48.130;11.630;2023-05-20T00:43:17;7.88;;;3.08;;
21122;SDS011;10719;48.130;11.630;2023-05-20T00:45:44;8.23;;;3.20;;
21122;SDS011;10719;48.130;11.630;2023-05-20T00:48:10;8.15;;;2.90;;
21122;SDS011;10719;48.130;11.630;2023-05-20T00:50:36;6.75;;;2.97;;
21122;SDS011;10719;48.130;11.630;2023-05-20T00:53:02;8.27;;;3.30;;
21122;SDS011;10719;48.130;11.630;2023-05-20T00:55:27;8.50;;;3.40;;
21122;SDS011;10719;48.130;11.630;2023-05-20T00:57:53;7.93;;;3.28;;
21122;SDS011;10719;48.130;11.630;2023-05-20T01:00:19;7.72;;;3.28;;
21122;SDS011;10719;48.130;11.630;2023-05-20T01:02:45;10.35;;;3.35;;
21122;SDS011;10719;48.130;11.630;2023-05-20T01:05:10;8.77;;;3.25;;
21122;SDS011;10719;48.130;11.630;2023-05-20T01:07:36;9.02;;;3.40;;
21122;SDS011;10719;48.130;11.630;2023-05-20T01:10:02;8.88;;;3.30;;
21122;SDS011;10719;48.130;11.630;2023-05-20T01:12:33;9.68;;;4.07;;
21122;SDS011;10719;48.130;11.630;2023-05-20T01:15:06;11.05;;;3.88;;
21122;SDS011;10719;48.130;11.630;2023-05-20T01:17:35;7.55;;;3.10;;
21122;SDS011;10719;48.130;11.630;2023-05-20T01:20:03;10.27;;;3.75;;
21122;SDS011;10719;48.130;11.630;2023-05-20T01:22:35;8.57;;;3.38;;
21122;SDS011;10719;48.130;11.630;2023-05-20T01:25:10;9.32;;;3.67;;
21122;SDS011;10719;48.130;11.630;2023-05-20T01:27:36;8.88;;;3.60;;
21122;SDS011;10719;48.130;11.630;2023-05-20T01:30:02;8.00;;;3.25;;
21122;SDS011;10719;48.130;11.630;2023-05-20T01:32:31;7.72;;;3.40;;
21122;SDS011;10719;48.130;11.630;2023-05-20T01:35:01;7.97;;;3.10;;
21122;SDS011;10719;48.130;11.630;2023-05-20T01:37:28;8.95;;;3.65;;
21122;SDS011;10719;48.130;11.630;2023-05-20T01:39:55;11.10;;;3.70;;
21122;SDS011;10719;48.130;11.630;2023-05-20T01:42:21;9.35;;;3.63;;
21122;SDS011;10719;48.130;11.630;2023-05-20T01:44:50;9.38;;;3.88;;
21122;SDS011;10719;48.130;11.630;2023-05-20T01:47:16;7.38;;;3.17;;
21122;SDS011;10719;48.130;11.630;2023-05-20T01:49:42;9.00;;;3.55;;
21122;SDS011;10719;48.130;11.630;2023-05-20T01:52:10;7.78;;;3.20;;
21122;SDS011;10719;48.130;11.630;2023-05-20T01:54:36;9.85;;;3.67;;
21122;SDS011;10719;48.130;11.630;2023-05-20T01:57:01;8.43;;;3.30;;
21122;SDS011;10719;48.130;11.630;2023-05-20T01:59:27;11.38;;;4.43;;
21122;SDS011;10719;48.130;11.630;2023-05-20T02:01:53;9.73;;;3.92;;
21122;SDS011;10719;48.130;11.630;2023-05-20T02:04:19;11.85;;;4.60;;
21122;SDS011;10719;48.130;11.630;2023-05-20T02:06:46;9.88;;;4.25;;
21122;SDS011;10719;48.130;11.630;2023-05-20T02:09:12;10.45;;;4.13;;
21122;SDS011;10719;48.130;11.630;2023-05-20T02:11:38;10.52;;;4.03;;
21122;SDS011;10719;48.130;11.630;2023-05-20T02:14:04;9.88;;;4.07;;
21122;SDS011;10719;48.130;11.630;2023-05-20T02:16:30;9.35;;;4.13;;
21122;SDS011;10719;48.130;11.630;2023-05-20T02:18:55;9.43;;;4.05;;
21122;SDS011;10719;48.130;11.630;2023-05-20T02:21:22;10.48;;;4.07;;
21122;SDS011;10719;48.130;11.630;2023-05-20T02:23:49;10.50;;;4.22;;
21122;SDS011;10719;48.130;11.630;2023-05-20T02:26:15;11.30;;;4.88;;
21122;SDS011;10719;48.130;11.630;2023-05-20T02:28:41;8.02;;;3.35;;
21122;SDS011;10719;48.130;11.630;2023-05-20T02:31:10;13.52;;;4.55;;
21122;SDS011;10719;48.130;11.630;2023-05-20T02:33:38;10.60;;;4.38;;
21122;SDS011;10719;48.130;11.630;2023-05-20T02:36:04;10.65;;;4.20;;
21122;SDS011;10719;48.130;11.630;2023-05-20T02:38:29;11.40;;;4.55;;
21122;SDS011;10719;48.130;11.630;2023-05-20T02:40:56;11.07;;;4.70;;
21122;SDS011;10719;48.130;11.630;2023-05-20T02:43:23;13.20;;;5.10;;
21122;SDS011;10719;48.130;11.630;2023-05-20T02:45:49;10.63;;;5.00;;
21122;SDS011;10719;48.130;11.630;2023-05-20T02:48:15;12.63;;;5.28;;
21122;SDS011;10719;48.130;11.630;2023-05-20T02:50:40;11.88;;;5.25;;
21122;SDS011;10719;48.130;11.630;2023-05-20T02:53:06;13.60;;;5.10;;
21122;SDS011;10719;48.130;11.630;2023-05-20T02:55:33;11.75;;;4.95;;
21122;SDS011;10719;48.130;11.630;2023-05-20T02:57:59;11.90;;;5.45;;
21122;SDS011;10719;48.130;11.630;2023-05-20T03:00:25;13.10;;;4.75;;
21122;SDS011;10719;48.130;11.630;2023-05-20T03:02:54;12.07;;;4.47;;
21122;SDS011;10719;48.130;11.630;2023-05-20T03:05:20;12.07;;;5.32;;
21122;SDS011;10719;48.130;11.630;2023-05-20T03:07:46;11.75;;;4.43;;
21122;SDS011;10719;48.130;11.630;2023-05-20T03:10:12;12.25;;;4.88;;
21122;SDS011;10719;48.130;11.630;2023-05-20T03:12:38;13.60;;;5.15;;
21122;SDS011;10719;48.130;11.630;2023-05-20T03:15:04;13.48;;;5.82;;
21122;SDS011;10719;48.130;11.630;2023-05-20T03:17:30;13.35;;;5.15;;
21122;SDS011;10719;48.130;11.630;2023-05-20T03:19:56;14.70;;;5.65;;
21122;SDS011;10719;48.130;11.630;2023-05-20T03:22:21;11.43;;;5.10;;
21122;SDS011;10719;48.130;11.630;2023-05-20T03:24:47;12.48;;;5.35;;
21122;SDS011;10719;48.130;11.630;2023-05-20T03:27:12;15.43;;;5.68;;
21122;SDS011;10719;48.130;11.630;2023-05-20T03:29:38;13.65;;;6.00;;
21122;SDS011;10719;48.130;11.630;2023-05-20T03:32:04;14.10;;;6.03;;
21122;SDS011;10719;48.130;11.630;2023-05-20T03:34:30;13.70;;;5.25;;
21122;SDS011;10719;48.130;11.630;2023-05-20T03:36:55;11.77;;;5.18;;
21122;SDS011;10719;48.130;11.630;2023-05-20T03:39:21;13.07;;;5.32;;
21122;SDS011;10719;48.130;11.630;2023-05-20T03:41:47;15.25;;;5.38;;
21122;SDS011;10719;48.130;11.630;2023-05-20T03:44:13;12.90;;;5.72;;
21122;SDS011;10719;48.130;11.630;2023-05-20T03:46:39;14.32;;;5.82;;
21122;SDS011;10719;48.130;11.630;2023-05-20T03:49:04;14.60;;;5.95;;
21122;SDS011;10719;48.130;11.630;2023-05-20T03:51:30;15.23;;;6.67;;
21122;SDS011;10719;48.130;11.630;2023-05-20T03:53:56;15.82;;;6.85;;
21122;SDS011;10719;48.130;11.630;2023-05-20T03:56:21;13.82;;;5.80;;
21122;SDS011;10719;48.130;11.630;2023-05-20T03:58:47;15.52;;;6.50;;
21122;SDS011;10719;48.130;11.630;2023-05-20T04:01:12;15.23;;;6.35;;
21122;SDS011;10719;48.130;11.630;2023-05-20T04:03:39;14.80;;;6.13;;
21122;SDS011;10719;48.130;11.630;2023-05-20T04:06:06;13.55;;;5.80;;
21122;SDS011;10719;48.130;11.630;2023-05-20T04:08:32;14.52;;;6.00;;
21122;SDS011;10719;48.130;11.630;2023-05-20T04:11:00;14.15;;;6.13;;
21122;SDS011;10719;48.130;11.630;2023-05-20T04:13:26;15.77;;;6.03;;
21122;SDS011;10719;48.130;11.630;2023-05-20T04:15:52;14.88;;;5.85;;
21122;SDS011;10719;48.130;11.630;2023-05-20T04:18:17;13.73;;;5.05;;
21122;SDS011;10719;48.130;11.630;2023-05-20T04:20:45;13.85;;;6.38;;
21122;SDS011;10719;48.130;11.630;2023-05-20T04:23:11;14.02;;;5.82;;
21122;SDS011;10719;48.130;11.630;2023-05-20T04:25:36;14.93;;;6.78;;
21122;SDS011;10719;48.130;11.630;2023-05-20T04:28:02;15.48;;;6.70;;
21122;SDS011;10719;48.130;11.630;2023-05-20T04:30:28;14.98;;;6.03;;
21122;SDS011;10719;48.130;11.630;2023-05-20T04:32:54;20.02;;;6.80;;
21122;SDS011;10719;48.130;11.630;2023-05-20T04:35:19;16.23;;;7.40;;
21122;SDS011;10719;48.130;11.630;2023-05-20T04:37:45;18.60;;;6.88;;
21122;SDS011;10719;48.130;11.630;2023-05-20T04:40:14;19.30;;;7.20;;
21122;SDS011;10719;48.130;11.630;2023-05-20T04:42:41;17.15;;;6.93;;
21122;SDS011;10719;48.130;11.630;2023-05-20T04:45:07;16.05;;;7.00;;
21122;SDS011;10719;48.130;11.630;2023-05-20T04:47:33;19.15;;;7.20;;
21122;SDS011;10719;48.130;11.630;2023-05-20T04:50:11;18.35;;;7.80;;
21122;SDS011;10719;48.130;11.630;2023-05-20T04:52:40;16.17;;;7.20;;
21122;SDS011;10719;48.130;11.630;2023-05-20T04:55:07;20.05;;;7.88;;
21122;SDS011;10719;48.130;11.630;2023-05-20T04:57:34;17.27;;;7.72;;
21122;SDS011;10719;48.130;11.630;2023-05-20T05:00:02;18.35;;;7.82;;
21122;SDS011;10719;48.130;11.630;2023-05-20T05:02:31;25.95;;;9.00;;
21122;SDS011;10719;48.130;11.630;2023-05-20T05:04:57;20.10;;;7.95;;
21122;SDS011;10719;48.130;11.630;2023-05-20T05:07:23;19.63;;;7.45;;
21122;SDS011;10719;48.130;11.630;2023-05-20T05:09:48;23.33;;;9.43;;
21122;SDS011;10719;48.130;11.630;2023-05-20T05:12:14;28.77;;;9.13;;
21122;SDS011;10719;48.130;11.630;2023-05-20T05:14:40;19.40;;;8.35;;
21122;SDS011;10719;48.130;11.630;2023-05-20T05:17:05;19.05;;;8.50;;
21122;SDS011;10719;48.130;11.630;2023-05-20T05:19:31;21.02;;;8.85;;
21122;SDS011;10719;48.130;11.630;2023-05-20T05:21:57;25.88;;;9.15;;
21122;SDS011;10719;48.130;11.630;2023-05-20T05:24:22;21.42;;;9.02;;
21122;SDS011;10719;48.130;11.630;2023-05-20T05:26:51;21.55;;;8.52;;
21122;SDS011;10719;48.130;11.630;2023-05-20T05:29:18;23.15;;;9.75;;
21122;SDS011;10719;48.130;11.630;2023-05-20T05:31:43;22.13;;;9.02;;
21122;SDS011;10719;48.130;11.630;2023-05-20T05:34:09;21.73;;;9.00;;
21122;SDS011;10719;48.130;11.630;2023-05-20T05:36:35;20.50;;;9.07;;
21122;SDS011;10719;48.130;11.630;2023-05-20T05:39:02;23.25;;;9.20;;
21122;SDS011;10719;48.130;11.630;2023-05-20T05:41:28;20.20;;;9.15;;
21122;SDS011;10719;48.130;11.630;2023-05-20T05:43:54;22.60;;;8.77;;
21122;SDS011;10719;48.130;11.630;2023-05-20T05:46:19;23.55;;;9.13;;
21122;SDS011;10719;48.130;11.630;2023-05-20T05:48:46;19.88;;;9.68;;
21122;SDS011;10719;48.130;11.630;2023-05-20T05:51:14;18.30;;;8.95;;
21122;SDS011;10719;48.130;11.630;2023-05-20T05:53:40;23.27;;;9.38;;
21122;SDS011;10719;48.130;11.630;2023-05-20T05:56:05;26.70;;;10.40;;
21122;SDS011;10719;48.130;11.630;2023-05-20T05:58:31;22.00;;;9.00;;
21122;SDS011;10719;48.130;11.630;2023-05-20T06:00:57;20.85;;;9.27;;
21122;SDS011;10719;48.130;11.630;2023-05-20T06:03:22;24.95;;;10.13;;
21122;SDS011;10719;48.130;11.630;2023-05-20T06:05:49;23.02;;;9.68;;
21122;SDS011;10719;48.130;11.630;2023-05-20T06:08:14;20.17;;;8.55;;
21122;SDS011;10719;48.130;11.630;2023-05-20T06:10:40;21.20;;;9.60;;
21122;SDS011;10719;48.130;11.630;2023-05-20T06:13:05;19.98;;;9.15;;
21122;SDS011;10719;48.130;11.630;2023-05-20T06:15:31;20.85;;;8.65;;
21122;SDS011;10719;48.130;11.630;2023-05-20T06:17:57;19.73;;;8.57;;
21122;SDS011;10719;48.130;11.630;2023-05-20T06:20:22;25.17;;;9.70;;
21122;SDS011;10719;48.130;11.630;2023-05-20T06:22:48;22.23;;;9.82;;
21122;SDS011;10719;48.130;11.630;2023-05-20T06:25:13;24.98;;;8.25;;
21122;SDS011;10719;48.130;11.630;2023-05-20T06:27:39;20.25;;;9.35;;
21122;SDS011;10719;48.130;11.630;2023-05-20T06:30:05;20.92;;;8.38;;
21122;SDS011;10719;48.130;11.630;2023-05-20T06:32:31;20.73;;;9.35;;
21122;SDS011;10719;48.130;11.630;2023-05-20T06:34:57;20.42;;;8.38;;
21122;SDS011;10719;48.130;11.630;2023-05-20T06:37:23;24.27;;;8.90;;
21122;SDS011;10719;48.130;11.630;2023-05-20T06:39:48;24.85;;;8.77;;
21122;SDS011;10719;48.130;11.630;2023-05-20T06:42:17;21.83;;;7.68;;
21122;SDS011;10719;48.130;11.630;2023-05-20T06:44:46;18.38;;;7.55;;
21122;SDS011;10719;48.130;11.630;2023-05-20T06:47:13;20.50;;;8.73;;
21122;SDS011;10719;48.130;11.630;2023-05-20T06:49:41;20.17;;;9.10;;
21122;SDS011;10719;48.130;11.630;2023-05-20T06:52:07;19.23;;;8.30;;
21122;SDS011;10719;48.130;11.630;2023-05-20T06:54:32;22.83;;;9.00;;
21122;SDS011;10719;48.130;11.630;2023-05-20T06:57:03;19.83;;;8.63;;
21122;SDS011;10719;48.130;11.630;2023-05-20T06:59:33;20.10;;;8.80;;
21122;SDS011;10719;48.130;11.630;2023-05-20T07:01:59;23.60;;;10.27;;
21122;SDS011;10719;48.130;11.630;2023-05-20T07:04:25;17.75;;;8.00;;
21122;SDS011;10719;48.130;11.630;2023-05-20T07:06:51;18.10;;;8.75;;
21122;SDS011;10719;48.130;11.630;2023-05-20T07:09:16;20.23;;;7.63;;
21122;SDS011;10719;48.130;11.630;2023-05-20T07:11:42;17.73;;;8.35;;
21122;SDS011;10719;48.130;11.630;2023-05-20T07:14:08;15.30;;;7.20;;
21122;SDS011;10719;48.130;11.630;2023-05-20T07:16:35;21.10;;;8.88;;
21122;SDS011;10719;48.130;11.630;2023-05-20T07:19:01;19.55;;;9.02;;
21122;SDS011;10719;48.130;11.630;2023-05-20T07:21:27;19.30;;;8.25;;
21122;SDS011;10719;48.130;11.630;2023-05-20T07:23:53;20.38;;;9.13;;
21122;SDS011;10719;48.130;11.630;2023-05-20T07:26:18;18.60;;;8.32;;
21122;SDS011;10719;48.130;11.630;2023-05-20T07:28:44;17.80;;;7.97;;
21122;SDS011;10719;48.130;11.630;2023-05-20T07:31:11;19.00;;;8.27;;
21122;SDS011;10719;48.130;11.630;2023-05-20T07:33:36;16.33;;;7.53;;
21122;SDS011;10719;48.130;11.630;2023-05-20T07:36:02;18.17;;;8.07;;
21122;SDS011;10719;48.130;11.630;2023-05-20T07:38:28;15.90;;;7.20;;
21122;SDS011;10719;48.130;11.630;2023-05-20T07:40:54;16.95;;;7.05;;
21122;SDS011;10719;48.130;11.630;2023-05-20T07:43:20;17.52;;;7.90;;
21122;SDS011;10719;48.130;11.630;2023-05-20T07:45:45;21.45;;;7.93;;
21122;SDS011;10719;48.130;11.630;2023-05-20T07:48:11;16.15;;;7.57;;
21122;SDS011;10719;48.130;11.630;2023-05-20T07:50:37;15.23;;;6.75;;
21122;SDS011;10719;48.130;11.630;2023-05-20T07:53:03;15.10;;;6.60;;
21122;SDS011;10719;48.130;11.630;2023-05-20T07:55:32;15.68;;;6.90;;
21122;SDS011;10719;48.130;11.630;2023-05-20T07:57:58;15.10;;;6.93;;
21122;SDS011;10719;48.130;11.630;2023-05-20T08:00:24;17.80;;;7.70;;
21122;SDS011;10719;48.130;11.630;2023-05-20T08:02:50;16.80;;;7.38;;
21122;SDS011;10719;48.130;11.630;2023-05-20T08:05:15;15.77;;;6.68;;
21122;SDS011;10719;48.130;11.630;2023-05-20T08:07:41;16.25;;;6.60;;
21122;SDS011;10719;48.130;11.630;2023-05-20T08:10:07;15.02;;;6.63;;
21122;SDS011;10719;48.130;11.630;2023-05-20T08:12:33;15.20;;;6.55;;
21122;SDS011;10719;48.130;11.630;2023-05-20T08:14:58;14.30;;;6.03;;
21122;SDS011;10719;48.130;11.630;2023-05-20T08:17:24;13.80;;;5.95;;
21122;SDS011;10719;48.130;11.630;2023-05-20T08:19:50;13.18;;;5.32;;
21122;SDS011;10719;48.130;11.630;2023-05-20T08:22:15;13.02;;;5.70;;
21122;SDS011;10719;48.130;11.630;2023-05-20T08:24:41;13.63;;;4.88;;
21122;SDS011;10719;48.130;11.630;2023-05-20T08:27:07;13.45;;;5.90;;
21122;SDS011;10719;48.130;11.630;2023-05-20T08:29:32;14.23;;;5.90;;
21122;SDS011;10719;48.130;11.630;2023-05-20T08:31:58;13.02;;;5.85;;
21122;SDS011;10719;48.130;11.630;2023-05-20T08:34:24;12.23;;;4.80;;
21122;SDS011;10719;48.130;11.630;2023-05-20T08:36:49;13.50;;;5.13;;
21122;SDS011;10719;48.130;11.630;2023-05-20T08:39:15;10.15;;;4.45;;
21122;SDS011;10719;48.130;11.630;2023-05-20T08:41:40;13.55;;;4.57;;
21122;SDS011;10719;48.130;11.630;2023-05-20T08:44:06;11.15;;;4.28;;
21122;SDS011;10719;48.130;11.630;2023-05-20T08:46:35;10.23;;;4.55;;
21122;SDS011;10719;48.130;11.630;2023-05-20T08:49:02;10.75;;;4.50;;
21122;SDS011;10719;48.130;11.630;2023-05-20T08:51:27;10.98;;;4.25;;
21122;SDS011;10719;48.130;11.630;2023-05-20T08:53:58;10.48;;;4.53;;
21122;SDS011;10719;48.130;11.630;2023-05-20T08:56:23;11.38;;;4.63;;
21122;SDS011;10719;48.130;11.630;2023-05-20T08:58:51;12.60;;;4.68;;
21122;SDS011;10719;48.130;11.630;2023-05-20T09:01:17;11.93;;;4.60;;
21122;SDS011;10719;48.130;11.630;2023-05-20T09:03:43;11.52;;;4.40;;
21122;SDS011;10719;48.130;11.630;2023-05-20T09:06:09;10.23;;;3.80;;
21122;SDS011;10719;48.130;11.630;2023-05-20T09:08:35;9.52;;;3.47;;
21122;SDS011;10719;48.130;11.630;2023-05-20T09:11:01;8.00;;;3.20;;
21122;SDS011;10719;48.130;11.630;2023-05-20T09:13:28;8.88;;;3.40;;
21122;SDS011;10719;48.130;11.630;2023-05-20T09:15:56;7.28;;;3.10;;
21122;SDS011;10719;48.130;11.630;2023-05-20T09:18:24;7.00;;;2.80;;
21122;SDS011;10719;48.130;11.630;2023-05-20T09:20:51;8.25;;;3.00;;
21122;SDS011;10719;48.130;11.630;2023-05-20T09:23:17;6.10;;;2.90;;
21122;SDS011;10719;48.130;11.630;2023-05-20T09:25:47;5.50;;;2.88;;
21122;SDS011;10719;48.130;11.630;2023-05-20T09:28:15;8.82;;;2.95;;
21122;SDS011;10719;48.130;11.630;2023-05-20T09:30:41;5.78;;;2.85;;
21122;SDS011;10719;48.130;11.630;2023-05-20T09:33:07;6.78;;;2.53;;
21122;SDS011;10719;48.130;11.630;2023-05-20T09:35:35;7.13;;;2.80;;
21122;SDS011;10719;48.130;11.630;2023-05-20T09:38:04;7.22;;;2.95;;
21122;SDS011;10719;48.130;11.630;2023-05-20T09:40:33;10.32;;;3.25;;
21122;SDS011;10719;48.130;11.630;2023-05-20T09:43:05;8.73;;;2.92;;
21122;SDS011;10719;48.130;11.630;2023-05-20T09:45:31;6.13;;;2.63;;
21122;SDS011;10719;48.130;11.630;2023-05-20T09:47:57;7.60;;;2.63;;
21122;SDS011;10719;48.130;11.630;2023-05-20T09:50:25;8.48;;;2.63;;
21122;SDS011;10719;48.130;11.630;2023-05-20T09:52:52;6.10;;;2.53;;
21122;SDS011;10719;48.130;11.630;2023-05-20T09:55:20;7.22;;;2.63;;
21122;SDS011;10719;48.130;11.630;2023-05-20T09:57:48;7.68;;;3.10;;
21122;SDS011;10719;48.130;11.630;2023-05-20T10:00:14;7.38;;;2.83;;
21122;SDS011;10719;48.130;11.630;2023-05-20T10:02:42;9.38;;;2.75;;
21122;SDS011;10719;48.130;11.630;2023-05-20T10:05:11;9.10;;;2.63;;
21122;SDS011;10719;48.130;11.630;2023-05-20T10:21:39;7.35;;;2.75;;
21122;SDS011;10719;48.130;11.630;2023-05-20T10:24:06;7.70;;;2.95;;
21122;SDS011;10719;48.130;11.630;2023-05-20T10:26:38;7.70;;;2.58;;
21122;SDS011;10719;48.130;11.630;2023-05-20T10:29:15;7.47;;;2.60;;
21122;SDS011;10719;48.130;11.630;2023-05-20T10:31:51;6.40;;;2.15;;
21122;SDS011;10719;48.130;11.630;2023-05-20T10:34:20;5.47;;;2.00;;
21122;SDS011;10719;48.130;11.630;2023-05-20T10:39:18;5.75;;;2.13;;
21122;SDS011;10719;48.130;11.630;2023-05-20T10:42:04;6.10;;;2.47;;
21122;SDS011;10719;48.130;11.630;2023-05-20T10:44:43;6.97;;;2.05;;
21122;SDS011;10719;48.130;11.630;2023-05-20T10:47:09;4.97;;;2.00;;
21122;SDS011;10719;48.130;11.630;2023-05-20T10:49:39;4.28;;;1.65;;
21122;SDS011;10719;48.130;11.630;2023-05-20T10:52:10;2.90;;;1.40;;
21122;SDS011;10719;48.130;11.630;2023-05-20T10:54:41;4.25;;;1.90;;
21122;SDS011;10719;48.130;11.630;2023-05-20T10:57:09;6.53;;;1.60;;
21122;SDS011;10719;48.130;11.630;2023-05-20T10:59:35;5.95;;;2.10;;
21122;SDS011;10719;48.130;11.630;2023-05-20T11:02:01;5.95;;;2.03;;
21122;SDS011;10719;48.130;11.630;2023-05-20T11:04:28;5.65;;;1.77;;
21122;SDS011;10719;48.130;11.630;2023-05-20T11:06:54;3.95;;;1.95;;
21122;SDS011;10719;48.130;11.630;2023-05-20T11:09:21;5.82;;;2.10;;
21122;SDS011;10719;48.130;11.630;2023-05-20T11:11:47;5.32;;;2.15;;
21122;SDS011;10719;48.130;11.630;2023-05-20T11:14:14;4.85;;;1.83;;
21122;SDS011;10719;48.130;11.630;2023-05-20T11:16:41;3.95;;;1.70;;
21122;SDS011;10719;48.130;11.630;2023-05-20T11:19:08;4.45;;;2.13;;
21122;SDS011;10719;48.130;11.630;2023-05-20T11:21:42;5.50;;;2.50;;
21122;SDS011;10719;48.130;11.630;2023-05-20T11:24:08;4.78;;;2.08;;
21122;SDS011;10719;48.130;11.630;2023-05-20T11:26:34;5.70;;;2.25;;
21122;SDS011;10719;48.130;11.630;2023-05-20T11:29:00;7.03;;;2.30;;
21122;SDS011;10719;48.130;11.630;2023-05-20T11:31:26;7.78;;;2.40;;
21122;SDS011;10719;48.130;11.630;2023-05-20T11:33:52;5.22;;;2.42;;
21122;SDS011;10719;48.130;11.630;2023-05-20T11:36:17;5.32;;;2.00;;
21122;SDS011;10719;48.130;11.630;2023-05-20T11:38:44;6.95;;;2.10;;
21122;SDS011;10719;48.130;11.630;2023-05-20T11:41:11;8.50;;;2.40;;
21122;SDS011;10719;48.130;11.630;2023-05-20T11:43:37;4.22;;;2.10;;
21122;SDS011;10719;48.130;11.630;2023-05-20T11:46:03;5.13;;;1.92;;
21122;SDS011;10719;48.130;11.630;2023-05-20T11:48:29;4.38;;;2.00;;
21122;SDS011;10719;48.130;11.630;2023-05-20T11:50:55;6.70;;;1.73;;
21122;SDS011;10719;48.130;11.630;2023-05-20T11:53:21;5.30;;;2.00;;
21122;SDS011;10719;48.130;11.630;2023-05-20T11:55:52;8.52;;;2.40;;
21122;SDS011;10719;48.130;11.630;2023-05-20T11:58:26;4.57;;;2.20;;
21122;SDS011;10719;48.130;11.630;2023-05-20T12:00:55;5.32;;;1.92;;
21122;SDS011;10719;48.130;11.630;2023-05-20T12:03:22;4.00;;;1.90;;
21122;SDS011;10719;48.130;11.630;2023-05-20T12:05:48;5.55;;;1.70;;
21122;SDS011;10719;48.130;11.630;2023-05-20T12:08:15;4.88;;;1.98;;
21122;SDS011;10719;48.130;11.630;2023-05-20T12:10:41;4.45;;;1.95;;
21122;SDS011;10719;48.130;11.630;2023-05-20T12:13:08;5.88;;;2.10;;
21122;SDS011;10719;48.130;11.630;2023-05-20T12:15:36;4.97;;;2.10;;
21122;SDS011;10719;48.130;11.630;2023-05-20T12:18:02;5.30;;;2.00;;
21122;SDS011;10719;48.130;11.630;2023-05-20T12:20:28;7.18;;;2.10;;
21122;SDS011;10719;48.130;11.630;2023-05-20T12:22:55;4.80;;;1.83;;
21122;SDS011;10719;48.130;11.630;2023-05-20T12:25:21;5.38;;;2.08;;
21122;SDS011;10719;48.130;11.630;2023-05-20T12:27:47;4.95;;;1.80;;
21122;SDS011;10719;48.130;11.630;2023-05-20T12:30:14;4.72;;;1.83;;
21122;SDS011;10719;48.130;11.630;2023-05-20T12:32:41;4.18;;;1.73;;
21122;SDS011;10719;48.130;11.630;2023-05-20T12:35:07;3.85;;;1.63;;
21122;SDS011;10719;48.130;11.630;2023-05-20T12:37:34;6.07;;;2.03;;
21122;SDS011;10719;48.130;11.630;2023-05-20T12:40:01;6.47;;;2.40;;
21122;SDS011;10719;48.130;11.630;2023-05-20T12:42:32;9.15;;;3.75;;
21122;SDS011;10719;48.130;11.630;2023-05-20T12:44:58;6.32;;;2.38;;
21122;SDS011;10719;48.130;11.630;2023-05-20T12:47:24;6.53;;;2.50;;
21122;SDS011;10719;48.130;11.630;2023-05-20T12:49:50;8.00;;;3.03;;
21122;SDS011;10719;48.130;11.630;2023-05-20T12:52:15;6.25;;;2.58;;
21122;SDS011;10719;48.130;11.630;2023-05-20T12:54:41;11.95;;;3.45;;
21122;SDS011;10719;48.130;11.630;2023-05-20T12:57:06;8.45;;;2.85;;
21122;SDS011;10719;48.130;11.630;2023-05-20T12:59:32;7.80;;;3.20;;
21122;SDS011;10719;48.130;11.630;2023-05-20T13:01:58;8.05;;;3.53;;
21122;SDS011;10719;48.130;11.630;2023-05-20T13:04:23;9.40;;;3.28;;
21122;SDS011;10719;48.130;11.630;2023-05-20T13:06:49;7.30;;;3.22;;
21122;SDS011;10719;48.130;11.630;2023-05-20T13:09:14;7.35;;;3.35;;
21122;SDS011;10719;48.130;11.630;2023-05-20T13:11:40;10.13;;;3.67;;
21122;SDS011;10719;48.130;11.630;2023-05-20T13:14:06;10.70;;;3.60;;
21122;SDS011;10719;48.130;11.630;2023-05-20T13:16:31;9.07;;;3.58;;
21122;SDS011;10719;48.130;11.630;2023-05-20T13:18:57;9.52;;;3.47;;
21122;SDS011;10719;48.130;11.630;2023-05-20T13:21:23;9.32;;;3.60;;
21122;SDS011;10719;48.130;11.630;2023-05-20T13:23:48;12.38;;;3.97;;
21122;SDS011;10719;48.130;11.630;2023-05-20T13:26:14;15.98;;;3.75;;
21122;SDS011;10719;48.130;11.630;2023-05-20T13:28:40;8.65;;;3.75;;
21122;SDS011;10719;48.130;11.630;2023-05-20T13:31:05;9.20;;;3.50;;
21122;SDS011;10719;48.130;11.630;2023-05-20T13:33:31;10.70;;;3.75;;
21122;SDS011;10719;48.130;11.630;2023-05-20T13:35:57;7.75;;;3.38;;
21122;SDS011;10719;48.130;11.630;2023-05-20T13:38:22;12.80;;;3.65;;
21122;SDS011;10719;48.130;11.630;2023-05-20T13:40:48;7.90;;;3.67;;
21122;SDS011;10719;48.130;11.630;2023-05-20T13:43:14;8.63;;;3.60;;
21122;SDS011;10719;48.130;11.630;2023-05-20T13:45:40;9.65;;;4.10;;
21122;SDS011;10719;48.130;11.630;2023-05-20T13:48:06;11.73;;;4.00;;
21122;SDS011;10719;48.130;11.630;2023-05-20T13:50:32;8.80;;;3.60;;
21122;SDS011;10719;48.130;11.630;2023-05-20T13:52:57;10.55;;;4.22;;
21122;SDS011;10719;48.130;11.630;2023-05-20T13:55:23;12.15;;;3.95;;
21122;SDS011;10719;48.130;11.630;2023-05-20T13:57:48;8.10;;;3.65;;
21122;SDS011;10719;48.130;11.630;2023-05-20T14:00:17;8.73;;;3.80;;
21122;SDS011;10719;48.130;11.630;2023-05-20T14:02:42;8.80;;;3.88;;
21122;SDS011;10719;48.130;11.630;2023-05-20T14:05:08;8.85;;;3.80;;
21122;SDS011;10719;48.130;11.630;2023-05-20T14:07:34;11.75;;;4.35;;
21122;SDS011;10719;48.130;11.630;2023-05-20T14:10:00;12.32;;;4.57;;
21122;SDS011;10719;48.130;11.630;2023-05-20T14:12:25;12.02;;;4.55;;
21122;SDS011;10719;48.130;11.630;2023-05-20T14:14:51;10.57;;;3.80;;
21122;SDS011;10719;48.130;11.630;2023-05-20T14:17:17;10.75;;;4.07;;
21122;SDS011;10719;48.130;11.630;2023-05-20T14:19:42;9.95;;;3.78;;
21122;SDS011;10719;48.130;11.630;2023-05-20T14:22:08;12.73;;;4.63;;
21122;SDS011;10719;48.130;11.630;2023-05-20T14:24:34;11.27;;;4.25;;
21122;SDS011;10719;48.130;11.630;2023-05-20T14:26:59;9.80;;;3.72;;
21122;SDS011;10719;48.130;11.630;2023-05-20T14:29:25;10.25;;;4.65;;
21122;SDS011;10719;48.130;11.630;2023-05-20T14:31:51;10.40;;;4.43;;
21122;SDS011;10719;48.130;11.630;2023-05-20T14:34:16;11.63;;;4.20;;
21122;SDS011;10719;48.130;11.630;2023-05-20T14:36:42;10.43;;;4.13;;
21122;SDS011;10719;48.130;11.630;2023-05-20T14:39:08;12.85;;;4.95;;